ADDS METAR Data INFO
IDs: Format: Raw Decoded Include TAF

Data at: 1904 UTC 23 Apr 2018

K5H4 231855Z AUTO 36012KT 10SM CLR 14/01 A3024 RMK AO2
K5H4 231835Z AUTO 01010G16KT 10SM CLR 14/02 A3024 RMK AO2
K5H4 231815Z AUTO 34010KT 10SM CLR 14/02 A3025 RMK AO2
K5H4 231755Z AUTO 35010KT 10SM CLR 13/01 A3025 RMK AO2
K5H4 231735Z AUTO 34007G13KT 10SM CLR 13/01 A3025 RMK AO2
K5H4 231715Z AUTO 34010KT 10SM CLR 13/01 A3026 RMK AO2
K5H4 231655Z AUTO 34009KT 10SM CLR 13/01 A3025 RMK AO2
K5H4 231635Z AUTO 01009G14KT 10SM CLR 13/02 A3025 RMK AO2
K5H4 231615Z AUTO 02010G15KT 10SM CLR 12/02 A3024 RMK AO2
K5H4 231555Z AUTO 02008KT 10SM CLR 11/02 A3024 RMK AO2
K5H4 231535Z AUTO 01008KT 10SM CLR 11/02 A3024 RMK AO2
K5H4 231515Z AUTO 36008KT 330V030 10SM CLR 10/02 A3024 RMK AO2
K5H4 231455Z AUTO 01007KT 10SM CLR 09/02 A3025 RMK AO2
K5H4 231435Z AUTO 01006KT 10SM CLR 08/02 A3025 RMK AO2
K5H4 231415Z AUTO 36006KT 10SM CLR 08/02 A3024 RMK AO2
K5H4 231355Z AUTO 36006KT 10SM CLR 08/02 A3024 RMK AO2
K5H4 231335Z AUTO 34007KT 10SM CLR 06/01 A3024 RMK AO2
K5H4 231315Z AUTO 33004KT 10SM CLR 05/01 A3024 RMK AO2
K5H4 231255Z AUTO 00000KT 10SM CLR 04/00 A3023 RMK AO2
K5H4 231235Z AUTO 00000KT 10SM CLR 02/00 A3023 RMK AO2
K5H4 231215Z AUTO 00000KT 10SM CLR 02/M01 A3022 RMK AO2
K5H4 231155Z AUTO 32005KT 10SM CLR 01/M01 A3021 RMK AO2
K5H4 231135Z AUTO 31006KT 10SM CLR 02/M01 A3021 RMK AO2
K5H4 231115Z AUTO 29007KT 10SM CLR 02/M00 A3020 RMK AO2
K5H4 231055Z AUTO 31004KT 10SM CLR 03/00 A3019 RMK AO2
K5H4 231035Z AUTO 30003KT 10SM CLR 03/01 A3019 RMK AO2
K5H4 231015Z AUTO 30005KT 10SM CLR 03/01 A3018 RMK AO2
K5H4 230955Z AUTO 32006KT 10SM CLR 03/01 A3017 RMK AO2
K5H4 230935Z AUTO 30006KT 10SM CLR 03/01 A3017 RMK AO2
K5H4 230915Z AUTO 31007KT 10SM CLR 04/02 A3016 RMK AO2
K5H4 230855Z AUTO 33005KT 10SM CLR 05/02 A3016 RMK AO2
K5H4 230835Z AUTO 35005KT 10SM CLR 05/02 A3016 RMK AO2
K5H4 230815Z AUTO 32012KT 7SM CLR 04/02 A3015 RMK AO2
K5H4 230755Z AUTO 24005KT 10SM CLR 05/02 A3013 RMK AO2
K5H4 230735Z AUTO 26005KT 10SM CLR 07/02 A3013 RMK AO2
K5H4 230715Z AUTO 23006KT 10SM CLR 06/03 A3013 RMK AO2
K5H4 230655Z AUTO 20007KT 10SM CLR 06/03 A3013 RMK AO2
K5H4 230635Z AUTO 19006KT 10SM CLR 06/04 A3013 RMK AO2
K5H4 230615Z AUTO 19005KT 10SM CLR 07/04 A3013 RMK AO2
K5H4 230555Z AUTO 19004KT 10SM CLR 08/03 A3013 RMK AO2
K5H4 230535Z AUTO 17006KT 10SM CLR 08/04 A3013 RMK AO2
K5H4 230515Z AUTO 17003KT 10SM CLR 08/03 A3013 RMK AO2
K5H4 230455Z AUTO 17005KT 10SM FEW110 08/03 A3013 RMK AO2
K5H4 230435Z AUTO 15005KT 10SM BKN110 09/04 A3013 RMK AO2
K5H4 230415Z AUTO 00000KT 10SM OVC110 09/04 A3013 RMK AO2
K5H4 230355Z AUTO 00000KT 10SM OVC110 10/05 A3013 RMK AO2
K5H4 230335Z AUTO 00000KT 10SM OVC110 10/05 A3013 RMK AO2
K5H4 230315Z AUTO 00000KT 10SM OVC110 11/03 A3013 RMK AO2
K5H4 230255Z AUTO 00000KT 10SM OVC100 11/03 A3013 RMK AO2
K5H4 230235Z AUTO 31004KT 10SM OVC100 11/03 A3012 RMK AO2
K5H4 230215Z AUTO 31005KT 10SM OVC100 12/04 A3012 RMK AO2
K5H4 230155Z AUTO 33004KT 10SM OVC100 13/04 A3011 RMK AO2
K5H4 230135Z AUTO 32008KT 10SM OVC100 14/04 A3011 RMK AO2
K5H4 230115Z AUTO 00000KT 10SM OVC100 15/04 A3010 RMK AO2
K5H4 230055Z AUTO 00000KT 10SM OVC100 16/03 A3011 RMK AO2
K5H4 230035Z AUTO 00000KT 10SM OVC095 16/03 A3010 RMK AO2
K5H4 230015Z AUTO 00000KT 10SM OVC095 16/03 A3010 RMK AO2
K5H4 222355Z AUTO 00000KT 10SM BKN095 16/03 A3011 RMK AO2
K5H4 222335Z AUTO 00000KT 10SM SCT100 16/03 A3011 RMK AO2
K5H4 222315Z AUTO 22003KT 10SM SCT110 16/03 A3011 RMK AO2
K5H4 222255Z AUTO 27005KT 10SM OVC110 17/03 A3011 RMK AO2
K5H4 222235Z AUTO 28007KT 10SM BKN110 17/02 A3011 RMK AO2
K5H4 222215Z AUTO 25006KT 10SM BKN110 17/02 A3012 RMK AO2
K5H4 222155Z AUTO 26007KT 10SM OVC110 17/02 A3011 RMK AO2
K5H4 222135Z AUTO 31003KT 10SM BKN110 16/02 A3012 RMK AO2
K5H4 222055Z AUTO 29007KT 10SM CLR 17/03 A3012 RMK AO2
K5H4 222035Z AUTO 00000KT 10SM CLR 16/03 A3013 RMK AO2
K5H4 221955Z AUTO 29004G10KT 10SM CLR 16/04 A3014 RMK AO2
K5H4 221915Z AUTO 22006KT 10SM FEW110 15/04 A3014 RMK AO2
K5H4 221855Z AUTO 23007KT 10SM CLR 15/04 A3015 RMK AO2
K5H4 221835Z AUTO 25008G13KT 10SM CLR 14/05 A3015 RMK AO2
K5H4 221815Z AUTO 23006G11KT 10SM CLR 14/05 A3015 RMK AO2
K5H4 221755Z AUTO 25008KT 10SM CLR 14/05 A3016 RMK AO2
K5H4 221735Z AUTO 26010KT 10SM CLR 13/05 A3016 RMK AO2
K5H4 221715Z AUTO 23011KT 10SM CLR 13/05 A3016 RMK AO2
K5H4 221655Z AUTO 25013KT 10SM CLR 13/05 A3016 RMK AO2
K5H4 221635Z AUTO 23012KT 10SM CLR 12/05 A3016 RMK AO2
K5H4 221555Z AUTO 22015KT 10SM CLR 11/05 A3016 RMK AO2
K5H4 221535Z AUTO 22017KT 10SM CLR 11/05 A3016 RMK AO2
K5H4 221515Z AUTO 23017KT 10SM CLR 10/04 A3016 RMK AO2
K5H4 221455Z AUTO 22016KT 10SM CLR 10/04 A3016 RMK AO2
K5H4 221435Z AUTO 22015KT 10SM CLR 09/04 A3016 RMK AO2
K5H4 221415Z AUTO 22016KT 10SM CLR 08/04 A3017 RMK AO2
K5H4 221355Z AUTO 21016KT 10SM CLR 08/04 A3016 RMK AO2
K5H4 221335Z AUTO 21016KT 10SM CLR 07/03 A3016 RMK AO2
K5H4 221315Z AUTO 21014KT 10SM -UP CLR 06/03 A3016 RMK AO2
K5H4 221255Z AUTO 22011KT 10SM CLR 05/03 A3016 RMK AO2
K5H4 221235Z AUTO 22006KT 10SM CLR 05/03 A3017 RMK AO2
K5H4 221215Z AUTO 19009KT 10SM CLR 04/02 A3016 RMK AO2
K5H4 221155Z AUTO 17009KT 10SM CLR 04/02 A3015 RMK AO2
K5H4 221135Z AUTO 19006KT 10SM CLR 03/02 A3016 RMK AO2
K5H4 221115Z AUTO 20008KT 10SM CLR 04/02 A3015 RMK AO2
K5H4 221055Z AUTO 19011KT 10SM CLR 04/02 A3015 RMK AO2
K5H4 221035Z AUTO 19014KT 10SM CLR 04/02 A3015 RMK AO2
K5H4 221015Z AUTO 19013G19KT 10SM CLR 04/02 A3015 RMK AO2
K5H4 220955Z AUTO 19011G16KT 10SM CLR 04/02 A3017 RMK AO2
K5H4 220935Z AUTO 20011KT 10SM CLR 05/02 A3018 RMK AO2
K5H4 220915Z AUTO 21012KT 10SM CLR 05/02 A3017 RMK AO2
K5H4 220855Z AUTO 19015G22KT 10SM CLR 05/02 A3014 RMK AO2
K5H4 220835Z AUTO 19019G24KT 10SM CLR 05/02 A3014 RMK AO2
K5H4 220815Z AUTO 19014G21KT 10SM CLR 06/02 A3015 RMK AO2
K5H4 220755Z AUTO 19016KT 10SM CLR 05/01 A3016 RMK AO2
K5H4 220735Z AUTO 19014G19KT 10SM CLR 05/01 A3017 RMK AO2
K5H4 220715Z AUTO 19015KT 10SM CLR 05/02 A3017 RMK AO2